createdAt,value
2022-09-24T00:02:04.968Z,67.93
2022-09-24T00:07:06.487Z,67.70
2022-09-24T00:12:07.919Z,67.65
2022-09-24T00:17:09.199Z,67.71
2022-09-24T00:22:10.500Z,67.42
2022-09-24T00:27:11.969Z,67.02
2022-09-24T00:32:13.412Z,66.94
2022-09-24T00:37:14.705Z,67.35
2022-09-24T00:42:18.371Z,67.26
2022-09-24T00:47:37.413Z,67.52
2022-09-24T00:52:42.598Z,67.35
2022-09-24T00:57:44.894Z,67.20
2022-09-24T01:02:47.750Z,67.33
2022-09-24T01:07:49.129Z,67.56
2022-09-24T01:12:55.617Z,67.40
2022-09-24T01:18:09.559Z,67.26
2022-09-24T01:23:23.118Z,67.28
2022-09-24T01:28:41.302Z,67.31
2022-09-24T01:33:44.599Z,67.41
2022-09-24T01:38:47.542Z,67.87
2022-09-24T01:43:49.246Z,67.98
2022-09-24T01:48:50.745Z,67.93
2022-09-24T01:54:03.816Z,68.51
2022-09-24T01:59:17.588Z,68.24
2022-09-24T02:04:20.634Z,68.32
2022-09-24T02:09:29.057Z,68.09
2022-09-24T02:14:32.258Z,68.30
2022-09-24T02:19:35.181Z,67.84
2022-09-24T02:24:49.154Z,68.04
2022-09-24T02:29:50.642Z,68.21
2022-09-24T02:34:54.332Z,68.43
2022-09-24T02:39:55.903Z,67.94
2022-09-24T02:44:59.111Z,68.06
2022-09-24T02:50:00.791Z,68.01
2022-09-24T02:55:02.092Z,67.44
2022-09-24T03:00:04.014Z,67.64
2022-09-24T03:05:05.479Z,68.00
2022-09-24T03:10:07.105Z,68.13
2022-09-24T03:15:08.514Z,68.24
2022-09-24T03:20:09.845Z,68.29
2022-09-24T03:25:11.170Z,68.02
2022-09-24T03:30:31.323Z,68.35
2022-09-24T03:35:32.683Z,68.39
2022-09-24T03:40:34.053Z,68.45
2022-09-24T03:45:35.356Z,68.62
2022-09-24T03:50:37.055Z,68.54
2022-09-24T03:55:44.490Z,68.64
2022-09-24T04:00:45.826Z,68.75
2022-09-24T04:05:47.238Z,68.80
2022-09-24T04:10:49.522Z,68.56
2022-09-24T04:15:51.488Z,69.05
2022-09-24T04:20:57.333Z,69.04
2022-09-24T04:26:02.460Z,69.19
2022-09-24T04:31:03.972Z,69.11
2022-09-24T04:36:05.279Z,69.28
2022-09-24T04:41:07.754Z,69.50
2022-09-24T04:46:09.942Z,69.48
2022-09-24T04:51:11.299Z,69.53
2022-09-24T04:56:12.704Z,69.89
2022-09-24T05:01:14.052Z,70.17
2022-09-24T05:06:15.377Z,70.17
2022-09-24T05:11:16.732Z,70.64
2022-09-24T05:16:18.052Z,70.41
2022-09-24T05:21:19.396Z,70.26
2022-09-24T05:26:39.518Z,70.30
2022-09-24T05:31:40.842Z,70.54
2022-09-24T05:36:45.354Z,70.92
2022-09-24T05:41:46.661Z,70.92
2022-09-24T05:46:48.541Z,70.92
2022-09-24T05:51:50.519Z,70.94
2022-09-24T05:56:51.789Z,71.33
2022-09-24T06:01:53.833Z,71.60
2022-09-24T06:06:56.155Z,71.51
2022-09-24T06:11:57.469Z,71.71
2022-09-24T06:16:58.767Z,71.49
2022-09-24T06:22:00.138Z,71.81
2022-09-24T06:27:01.457Z,71.48
2022-09-24T06:32:02.949Z,71.80
2022-09-24T06:37:04.244Z,71.61
2022-09-24T06:42:06.440Z,71.58
2022-09-24T06:47:08.763Z,72.27
2022-09-24T06:52:11.295Z,72.50
2022-09-24T06:57:12.745Z,72.63
2022-09-24T07:02:14.133Z,72.58
2022-09-24T07:07:32.667Z,72.48
2022-09-24T07:12:34.736Z,72.55
2022-09-24T07:17:36.276Z,72.80
2022-09-24T07:22:41.489Z,72.93
2022-09-24T07:27:42.965Z,73.04
2022-09-24T07:32:44.270Z,73.26
2022-09-24T07:37:45.548Z,73.20
2022-09-24T07:42:47.903Z,73.42
2022-09-24T07:47:56.588Z,73.42
2022-09-24T07:52:57.882Z,73.31
2022-09-24T07:57:59.147Z,73.12
2022-09-24T08:03:01.814Z,73.33
2022-09-24T08:08:03.119Z,73.49
2022-09-24T08:13:04.401Z,73.56
2022-09-24T08:18:06.024Z,73.48
2022-09-24T08:23:09.896Z,73.24
2022-09-24T08:28:12.197Z,73.54
2022-09-24T08:33:13.642Z,73.71
2022-09-24T08:38:15.476Z,73.60
2022-09-24T08:43:22.889Z,73.22
2022-09-24T08:48:26.237Z,73.39
2022-09-24T08:53:39.668Z,73.17
2022-09-24T08:58:46.535Z,73.20
2022-09-24T09:04:10.884Z,72.63
2022-09-24T09:09:17.584Z,72.51
2022-09-24T09:14:22.341Z,72.08
2022-09-24T09:19:28.440Z,71.12
2022-09-24T09:24:39.663Z,71.32
2022-09-24T09:29:41.906Z,70.89
2022-09-24T09:34:47.955Z,71.13
2022-09-24T09:40:07.485Z,71.04
2022-09-24T09:45:27.668Z,71.57
2022-09-24T09:50:35.778Z,70.96
2022-09-24T09:55:37.618Z,70.81
2022-09-24T10:00:38.971Z,70.63
2022-09-24T10:05:41.241Z,70.93
2022-09-24T10:10:55.123Z,70.81
2022-09-24T10:16:08.606Z,70.55
2022-09-24T10:21:12.561Z,69.76
2022-09-24T10:26:14.219Z,68.88
2022-09-24T10:31:25.186Z,68.87
2022-09-24T10:36:28.286Z,69.65
2022-09-24T10:41:30.707Z,68.01
2022-09-24T10:46:38.132Z,68.23
2022-09-24T10:51:48.641Z,68.41
2022-09-24T10:56:53.559Z,66.59
2022-09-24T11:02:09.502Z,66.79
2022-09-24T11:07:19.870Z,63.95
2022-09-24T11:12:27.803Z,63.02
2022-09-24T11:17:34.194Z,63.02
2022-09-24T11:22:47.923Z,62.75
2022-09-24T11:28:08.194Z,61.46
2022-09-24T11:33:22.872Z,61.43
2022-09-24T11:38:39.640Z,60.96
2022-09-24T11:43:40.918Z,61.79
2022-09-24T11:48:55.383Z,61.18
2022-09-24T11:54:01.286Z,59.74
2022-09-24T11:59:07.685Z,58.86
2022-09-24T12:04:13.469Z,57.76
2022-09-24T12:09:17.830Z,58.51
2022-09-24T12:14:25.461Z,59.22
2022-09-24T12:19:30.667Z,59.65
2022-09-24T12:24:42.788Z,59.85
2022-09-24T12:30:09.215Z,58.65
2022-09-24T12:35:29.457Z,58.15
2022-09-24T12:40:46.324Z,58.74
2022-09-24T12:45:52.954Z,57.82
2022-09-24T12:50:59.115Z,57.06
2022-09-24T12:56:00.960Z,57.78
2022-09-24T13:01:25.695Z,57.58
2022-09-24T13:06:33.458Z,57.69
2022-09-24T13:11:37.388Z,58.69
2022-09-24T13:16:40.571Z,59.40
2022-09-24T13:21:42.342Z,59.20
2022-09-24T13:26:45.420Z,59.16
2022-09-24T13:31:49.221Z,59.41
2022-09-24T13:36:53.829Z,58.08
2022-09-24T13:42:07.282Z,58.92
2022-09-24T13:47:27.528Z,59.27
2022-09-24T13:52:32.361Z,59.80
2022-09-24T13:57:42.410Z,60.76
2022-09-24T14:02:51.346Z,60.77
2022-09-24T14:07:55.130Z,60.92
2022-09-24T14:13:07.924Z,61.41
2022-09-24T14:18:14.700Z,62.44
2022-09-24T14:23:18.932Z,62.18
2022-09-24T14:28:20.736Z,62.42
2022-09-24T14:33:25.812Z,62.61
2022-09-24T14:38:34.257Z,62.81
2022-09-24T14:43:41.889Z,62.08
2022-09-24T14:48:44.087Z,62.65
2022-09-24T14:53:45.378Z,63.02
2022-09-24T14:58:46.766Z,63.31
2022-09-24T15:03:52.776Z,63.69
2022-09-24T15:08:57.868Z,63.70
2022-09-24T15:14:11.501Z,63.89
2022-09-24T15:19:17.655Z,63.71
2022-09-24T15:24:22.704Z,63.86
2022-09-24T15:29:24.811Z,64.07
2022-09-24T15:34:26.216Z,64.20
2022-09-24T15:39:28.102Z,64.41
2022-09-24T15:44:33.896Z,64.50
2022-09-24T15:49:35.706Z,64.71
2022-09-24T15:54:37.014Z,64.80
2022-09-24T15:59:38.339Z,64.62
2022-09-24T16:04:39.635Z,64.86
2022-09-24T16:09:40.972Z,64.95
2022-09-24T16:14:42.433Z,65.31
2022-09-24T16:19:43.963Z,65.43
2022-09-24T16:24:45.257Z,65.68
2022-09-24T16:29:46.547Z,65.67
2022-09-24T16:34:48.346Z,65.85
2022-09-24T16:39:49.651Z,66.15
2022-09-24T16:44:50.916Z,66.31
2022-09-24T16:49:52.324Z,66.35
2022-09-24T16:54:53.634Z,66.53
2022-09-24T16:59:54.957Z,66.85
2022-09-24T17:04:59.433Z,67.02
2022-09-24T17:10:15.404Z,67.09
2022-09-24T17:15:19.207Z,67.20
2022-09-24T17:20:21.140Z,67.26
2022-09-24T17:25:22.415Z,67.52
2022-09-24T17:30:23.693Z,67.43
2022-09-24T17:35:24.966Z,67.51
2022-09-24T17:40:26.741Z,67.90
2022-09-24T17:45:29.321Z,67.88
2022-09-24T17:50:32.235Z,67.77
2022-09-24T17:55:33.515Z,67.74
2022-09-24T18:00:34.816Z,68.02
2022-09-24T18:05:36.326Z,68.05
2022-09-24T18:10:37.608Z,68.13
2022-09-24T18:15:39.043Z,67.91
2022-09-24T18:20:41.973Z,68.10
2022-09-24T18:25:43.490Z,68.18
2022-09-24T18:30:44.783Z,68.20
2022-09-24T18:35:46.083Z,68.12
2022-09-24T18:40:47.555Z,68.25
2022-09-24T18:45:49.090Z,68.22
2022-09-24T18:50:50.831Z,67.98
2022-09-24T18:55:52.504Z,68.07
2022-09-24T19:00:57.434Z,68.24
2022-09-24T19:06:03.106Z,68.08
2022-09-24T19:11:09.078Z,67.98
2022-09-24T19:16:12.282Z,68.30
2022-09-24T19:21:14.644Z,68.24
2022-09-24T19:26:17.916Z,68.46
2022-09-24T19:31:22.245Z,68.36
2022-09-24T19:36:23.721Z,68.20
2022-09-24T19:41:26.312Z,68.30
2022-09-24T19:46:28.395Z,68.21
2022-09-24T19:51:31.054Z,68.58
2022-09-24T19:56:32.933Z,68.54
2022-09-24T20:01:34.966Z,68.62
2022-09-24T20:06:37.054Z,68.66
2022-09-24T20:11:38.337Z,68.82
2022-09-24T20:16:42.627Z,68.89
2022-09-24T20:21:44.205Z,68.83
2022-09-24T20:27:04.276Z,68.89
2022-09-24T20:32:05.628Z,69.12
2022-09-24T20:37:07.103Z,69.09
2022-09-24T20:42:08.425Z,68.97
2022-09-24T20:47:10.404Z,69.15
2022-09-24T20:52:12.120Z,69.13
2022-09-24T20:57:14.100Z,69.22
2022-09-24T21:02:16.583Z,69.21
2022-09-24T21:07:18.029Z,69.49
2022-09-24T21:12:19.869Z,69.45
2022-09-24T21:17:21.418Z,69.53
2022-09-24T21:22:24.182Z,69.44
2022-09-24T21:27:25.727Z,69.60
2022-09-24T21:32:27.003Z,69.62
2022-09-24T21:37:28.656Z,69.68
2022-09-24T21:42:31.802Z,69.70
2022-09-24T21:47:33.098Z,69.74
2022-09-24T21:52:34.501Z,69.65
2022-09-24T21:57:35.771Z,69.91
2022-09-24T22:02:41.089Z,69.86
2022-09-24T22:07:45.383Z,69.80
2022-09-24T22:12:46.718Z,69.74
2022-09-24T22:17:48.131Z,69.73
2022-09-24T22:22:49.418Z,69.95
2022-09-24T22:27:50.688Z,70.05
2022-09-24T22:32:51.958Z,69.90
2022-09-24T22:37:53.691Z,69.69
2022-09-24T22:42:54.961Z,69.68
2022-09-24T22:47:56.633Z,69.71
2022-09-24T22:52:57.928Z,69.90
2022-09-24T22:57:59.197Z,69.88
2022-09-24T23:03:00.545Z,69.86
2022-09-24T23:08:01.944Z,69.94
2022-09-24T23:13:03.236Z,69.68
2022-09-24T23:18:04.509Z,69.88
2022-09-24T23:23:05.827Z,69.91
2022-09-24T23:28:07.099Z,70.02
2022-09-24T23:33:08.384Z,69.68
2022-09-24T23:38:09.714Z,70.01
2022-09-24T23:43:11.001Z,70.09
2022-09-24T23:48:12.375Z,70.14
2022-09-24T23:53:14.340Z,69.89
2022-09-24T23:58:16.682Z,69.83
